Time;durP1;ratioP1;P1;durP2;ratioP2;P2;SDS_P1;SDS_P2;PMS_P1;PMS_P2;Temp;Humidity;BMP_temperature;BMP_pressure;BME280_temperature;BME280_humidity;BME280_pressure;Samples;Min_cycle;Max_cycle;Signal;HPM_P1;HPM_P2
2022/11/03 00:01:08;;;;;;;6.37;2.00;;;11.90;99.90;;;;;;5055353;28;20454;-78
2022/11/03 00:03:35;;;;;;;7.97;2.07;;;11.90;99.90;;;;;;5055498;28;20447;-78
2022/11/03 00:06:05;;;;;;;9.57;1.97;;;11.90;99.90;;;;;;5056650;28;20585;-79
2022/11/03 00:08:36;;;;;;;5.37;1.93;;;11.90;99.90;;;;;;5056716;28;20566;-78
2022/11/03 00:11:08;;;;;;;6.50;1.40;;;11.80;99.90;;;;;;5053304;28;20495;-78
2022/11/03 00:13:36;;;;;;;7.30;2.53;;;11.80;99.90;;;;;;5037070;28;20968;-77
2022/11/03 00:16:03;;;;;;;7.10;1.77;;;11.80;99.90;;;;;;5045997;28;20456;-80
2022/11/03 00:18:29;;;;;;;4.80;1.50;;;11.80;99.90;;;;;;5055878;28;20559;-78
2022/11/03 00:20:58;;;;;;;7.30;2.03;;;11.80;99.90;;;;;;5055424;28;21127;-78
2022/11/03 00:23:30;;;;;;;6.27;2.03;;;11.80;99.90;;;;;;5056113;28;20485;-78
2022/11/03 00:26:06;;;;;;;9.80;2.30;;;11.90;99.90;;;;;;5056300;28;20915;-79
2022/11/03 00:28:34;;;;;;;9.60;1.77;;;12.00;99.90;;;;;;5055649;28;20920;-78
2022/11/03 00:31:01;;;;;;;9.70;2.00;;;12.00;99.90;;;;;;5056322;28;20458;-79
2022/11/03 00:33:31;;;;;;;7.80;2.00;;;12.00;99.90;;;;;;5056045;28;20455;-77
2022/11/03 00:35:58;;;;;;;5.70;1.77;;;12.00;99.90;;;;;;5055882;28;20526;-78
2022/11/03 00:38:25;;;;;;;9.23;2.00;;;12.10;99.90;;;;;;5056160;28;21109;-79
2022/11/03 00:40:55;;;;;;;7.33;2.10;;;12.20;99.90;;;;;;5056261;28;20885;-79
2022/11/03 00:43:25;;;;;;;8.33;1.90;;;12.20;99.90;;;;;;5055704;28;20443;-80
2022/11/03 00:45:53;;;;;;;15.00;3.10;;;12.20;99.90;;;;;;5056270;28;20481;-80
2022/11/03 00:48:29;;;;;;;9.73;2.03;;;12.30;99.90;;;;;;5054397;28;20505;-80
2022/11/03 00:51:01;;;;;;;4.50;2.00;;;12.30;99.90;;;;;;5055088;28;20453;-79
2022/11/03 00:53:28;;;;;;;7.40;2.13;;;12.40;99.90;;;;;;5055698;28;20438;-78
2022/11/03 00:55:55;;;;;;;7.07;1.70;;;12.30;99.90;;;;;;5055628;28;20455;-78
2022/11/03 00:58:23;;;;;;;7.37;2.40;;;12.40;99.90;;;;;;5054991;28;20468;-79
2022/11/03 01:00:50;;;;;;;8.47;1.80;;;12.40;99.90;;;;;;5056006;28;20452;-80
2022/11/03 01:03:17;;;;;;;5.53;1.93;;;12.40;99.90;;;;;;5055403;28;20458;-80
2022/11/03 01:08:33;;;;;;;6.10;2.10;;;12.50;99.90;;;;;;5054662;28;20490;-78
2022/11/03 01:13:51;;;;;;;6.77;1.70;;;12.60;99.90;;;;;;5052690;28;20412;-78
2022/11/03 01:16:18;;;;;;;6.30;2.37;;;12.70;99.90;;;;;;5053499;28;20549;-77
2022/11/03 01:18:45;;;;;;;7.70;2.53;;;12.70;99.90;;;;;;5053462;28;20531;-78
2022/11/03 01:21:12;;;;;;;7.57;2.20;;;12.70;99.90;;;;;;5053317;28;20805;-78
2022/11/03 01:23:39;;;;;;;5.87;1.93;;;12.60;99.90;;;;;;5053554;28;20451;-78
2022/11/03 01:26:06;;;;;;;7.57;2.13;;;12.60;99.90;;;;;;5053241;28;20460;-77
2022/11/03 01:28:34;;;;;;;8.67;1.53;;;12.60;99.90;;;;;;5053414;28;20500;-78
2022/11/03 01:31:04;;;;;;;5.47;1.93;;;12.70;99.90;;;;;;5053515;28;20455;-78
2022/11/03 01:33:31;;;;;;;9.00;2.20;;;12.70;99.90;;;;;;5054101;28;20491;-77
2022/11/03 01:35:58;;;;;;;8.17;2.33;;;12.60;99.90;;;;;;5053945;28;20459;-77
2022/11/03 01:38:25;;;;;;;9.37;2.30;;;12.60;99.90;;;;;;5053081;28;20475;-79
2022/11/03 01:40:52;;;;;;;5.60;2.30;;;12.60;99.90;;;;;;5053685;28;20453;-77
2022/11/03 01:43:21;;;;;;;8.10;1.93;;;12.60;99.90;;;;;;5053802;28;20460;-78
2022/11/03 01:45:51;;;;;;;6.67;1.90;;;12.50;99.90;;;;;;5055829;28;20455;-78
2022/11/03 01:48:22;;;;;;;7.10;2.27;;;12.60;99.90;;;;;;5044487;28;20497;-77
2022/11/03 01:50:50;;;;;;;6.23;1.80;;;12.50;99.90;;;;;;5057108;28;20458;-78
2022/11/03 01:53:18;;;;;;;7.47;2.20;;;12.50;99.90;;;;;;5057432;28;20457;-78
2022/11/03 01:55:47;;;;;;;5.40;1.80;;;12.50;99.90;;;;;;5057444;28;20448;-78
2022/11/03 01:58:17;;;;;;;8.80;1.83;;;12.50;99.90;;;;;;5058497;28;20473;-78
2022/11/03 02:00:48;;;;;;;7.60;2.20;;;12.50;99.90;;;;;;5060535;28;20492;-78
2022/11/03 02:03:15;;;;;;;6.17;2.20;;;12.50;99.90;;;;;;5060148;28;20541;-80
2022/11/03 02:05:45;;;;;;;8.07;1.73;;;12.40;99.90;;;;;;5058387;28;20464;-77
2022/11/03 02:08:15;;;;;;;9.97;2.90;;;12.30;99.90;;;;;;5058196;28;20550;-79
2022/11/03 02:10:42;;;;;;;8.93;2.00;;;12.40;99.90;;;;;;5058122;28;20540;-78
2022/11/03 02:13:16;;;;;;;9.90;2.60;;;12.30;99.90;;;;;;5058989;28;20522;-78
2022/11/03 02:15:43;;;;;;;5.03;1.90;;;12.40;99.90;;;;;;5059438;28;20474;-78
2022/11/03 02:18:11;;;;;;;6.83;1.83;;;12.30;99.90;;;;;;5057979;28;21000;-79
2022/11/03 02:20:39;;;;;;;5.50;1.80;;;12.30;99.90;;;;;;5058841;28;20452;-80
2022/11/03 02:23:28;;;;;;;11.37;2.77;;;12.30;99.90;;;;;;5059138;28;20533;-79
2022/11/03 02:25:57;;;;;;;5.60;1.73;;;12.30;99.90;;;;;;5059376;28;20524;-78
2022/11/03 02:28:26;;;;;;;6.20;1.90;;;12.30;99.90;;;;;;5056727;28;21116;-78
2022/11/03 02:31:02;;;;;;;6.97;1.63;;;12.20;99.90;;;;;;5057362;28;20819;-77
2022/11/03 02:33:42;;;;;;;8.93;2.20;;;12.30;99.90;;;;;;5057824;28;20502;-79
2022/11/03 02:36:15;;;;;;;7.37;2.40;;;12.30;99.90;;;;;;5057955;28;20459;-78
2022/11/03 02:38:49;;;;;;;10.60;2.63;;;12.40;99.90;;;;;;5057171;28;20471;-78
2022/11/03 02:41:18;;;;;;;7.80;2.50;;;12.30;99.90;;;;;;5057000;28;20429;-78
2022/11/03 02:43:48;;;;;;;6.93;2.30;;;12.30;99.90;;;;;;5057010;28;20451;-79
2022/11/03 02:46:17;;;;;;;9.20;2.33;;;12.30;99.90;;;;;;5056298;28;20847;-77
2022/11/03 02:48:43;;;;;;;9.30;2.03;;;12.30;99.90;;;;;;5055417;28;20501;-78
2022/11/03 02:51:11;;;;;;;5.53;1.80;;;12.40;99.90;;;;;;5056585;28;20454;-79
2022/11/03 02:53:51;;;;;;;7.50;1.90;;;12.40;99.90;;;;;;5056598;28;20460;-78
2022/11/03 02:56:23;;;;;;;7.03;2.20;;;12.30;99.90;;;;;;5056311;28;20436;-77
2022/11/03 02:58:56;;;;;;;4.40;1.77;;;12.30;99.90;;;;;;5055406;28;20828;-78
2022/11/03 03:01:28;;;;;;;5.27;2.17;;;12.30;99.90;;;;;;5056032;28;20887;-80
2022/11/03 03:03:58;;;;;;;6.90;1.83;;;12.20;99.90;;;;;;5056898;28;20481;-78
2022/11/03 03:06:29;;;;;;;5.57;1.60;;;12.20;99.90;;;;;;5057088;28;20459;-78
2022/11/03 03:09:00;;;;;;;11.27;2.80;;;12.30;99.90;;;;;;5056468;28;21011;-80
2022/11/03 03:11:37;;;;;;;6.03;2.20;;;12.20;99.90;;;;;;5057701;28;20533;-81
2022/11/03 03:14:07;;;;;;;10.37;2.37;;;12.20;99.90;;;;;;5058026;28;20442;-80
2022/11/03 03:16:39;;;;;;;5.00;1.37;;;12.30;99.90;;;;;;5056350;28;20465;-79
2022/11/03 03:19:15;;;;;;;9.60;2.60;;;12.30;99.90;;;;;;5054716;28;20469;-77
2022/11/03 03:21:45;;;;;;;10.27;2.03;;;12.40;99.90;;;;;;5056054;28;20446;-78
2022/11/03 03:24:18;;;;;;;5.90;2.00;;;12.40;99.90;;;;;;5055610;28;20524;-77
2022/11/03 03:26:49;;;;;;;10.30;2.80;;;12.40;99.90;;;;;;5055288;28;20450;-78
2022/11/03 03:29:19;;;;;;;8.10;1.90;;;12.40;99.90;;;;;;5054327;28;20497;-80
2022/11/03 03:31:51;;;;;;;6.73;2.00;;;12.30;99.90;;;;;;5058040;28;20435;-78
2022/11/03 03:34:20;;;;;;;7.00;1.87;;;12.30;99.90;;;;;;5058594;28;20496;-77
2022/11/03 03:36:49;;;;;;;12.40;1.83;;;12.40;99.90;;;;;;5057528;28;20542;-80
2022/11/03 03:39:19;;;;;;;4.17;1.50;;;12.40;99.90;;;;;;5056546;28;20471;-78
2022/11/03 03:41:48;;;;;;;4.20;1.63;;;12.40;99.90;;;;;;5055613;28;20438;-78
2022/11/03 03:44:16;;;;;;;9.47;2.40;;;12.40;99.90;;;;;;5055162;28;20450;-80
2022/11/03 03:46:47;;;;;;;7.50;2.73;;;12.40;99.90;;;;;;5056410;28;20447;-79
2022/11/03 03:49:14;;;;;;;7.60;2.17;;;12.40;99.90;;;;;;5056597;28;20497;-80
2022/11/03 03:51:42;;;;;;;7.13;1.83;;;12.40;99.90;;;;;;5056946;28;20953;-79
2022/11/03 03:54:09;;;;;;;7.93;2.07;;;12.40;99.90;;;;;;5057074;28;20455;-79
2022/11/03 03:56:42;;;;;;;8.87;2.47;;;12.40;99.90;;;;;;5056760;28;20458;-78
2022/11/03 03:59:10;;;;;;;8.37;2.00;;;12.40;99.90;;;;;;5056666;28;20465;-80
2022/11/03 04:01:36;;;;;;;5.73;2.23;;;12.30;99.90;;;;;;5056793;28;20445;-78
2022/11/03 04:04:04;;;;;;;7.03;1.97;;;12.30;99.90;;;;;;5055577;28;20544;-79
2022/11/03 04:06:30;;;;;;;6.03;1.87;;;12.30;99.90;;;;;;5055045;28;20881;-77
2022/11/03 04:08:57;;;;;;;5.93;1.40;;;12.30;99.90;;;;;;5054167;28;20493;-79
2022/11/03 04:22:23;;;;;;;5.60;2.00;;;12.30;99.90;;;;;;5064513;28;20432;-77
2022/11/03 04:24:51;;;;;;;6.63;1.77;;;12.30;99.90;;;;;;5058111;28;20540;-78
2022/11/03 04:27:29;;;;;;;8.80;2.50;;;12.30;99.90;;;;;;5056444;28;20608;-77
2022/11/03 04:30:02;;;;;;;8.20;1.90;;;12.20;99.90;;;;;;5056141;28;20496;-77
2022/11/03 04:32:29;;;;;;;5.43;1.83;;;12.20;99.90;;;;;;5056735;28;20491;-79
2022/11/03 04:34:56;;;;;;;6.13;2.00;;;12.20;99.90;;;;;;5056847;28;20463;-81
2022/11/03 04:37:23;;;;;;;7.50;1.93;;;12.20;99.90;;;;;;5055547;28;20554;-79
2022/11/03 04:39:49;;;;;;;6.83;1.83;;;12.30;99.90;;;;;;5054369;28;20458;-76
2022/11/03 04:42:20;;;;;;;5.37;1.87;;;12.20;99.90;;;;;;5054259;28;20523;-78
2022/11/03 04:44:48;;;;;;;7.00;2.10;;;12.20;99.90;;;;;;5054090;28;20459;-80
2022/11/03 04:47:18;;;;;;;6.37;1.80;;;12.20;99.90;;;;;;5054533;28;20530;-78
2022/11/03 04:49:46;;;;;;;8.47;2.10;;;12.20;99.90;;;;;;5053951;28;20478;-78
2022/11/03 04:52:16;;;;;;;6.97;2.37;;;12.30;99.90;;;;;;5053567;28;20468;-79
2022/11/03 04:54:44;;;;;;;5.63;1.80;;;12.30;99.90;;;;;;5054679;28;20459;-78
2022/11/03 04:57:13;;;;;;;7.30;1.97;;;12.30;99.90;;;;;;5054744;28;20503;-78
2022/11/03 04:59:41;;;;;;;4.93;1.60;;;12.40;99.90;;;;;;5054093;28;20443;-79
2022/11/03 05:02:13;;;;;;;5.53;1.90;;;12.40;99.90;;;;;;5053796;28;20450;-79
2022/11/03 05:04:42;;;;;;;6.20;2.10;;;12.40;99.90;;;;;;5054829;28;20462;-77
2022/11/03 05:07:22;;;;;;;8.57;2.47;;;12.40;99.90;;;;;;5056778;28;20537;-79
2022/11/03 05:09:49;;;;;;;5.07;1.73;;;12.40;99.90;;;;;;5058062;28;20510;-78
2022/11/03 05:12:17;;;;;;;10.87;1.73;;;12.30;99.90;;;;;;5056198;28;20541;-79
2022/11/03 05:14:44;;;;;;;4.50;1.70;;;12.30;99.90;;;;;;5056721;28;20544;-79
2022/11/03 05:17:20;;;;;;;8.57;2.10;;;12.30;99.90;;;;;;5057550;28;20909;-78
2022/11/03 05:19:50;;;;;;;10.03;3.10;;;12.30;99.90;;;;;;5057817;28;20530;-78
2022/11/03 05:22:21;;;;;;;6.20;2.20;;;12.30;99.90;;;;;;5064578;28;20489;-79
2022/11/03 05:24:49;;;;;;;11.47;2.90;;;12.30;99.90;;;;;;5068863;28;20532;-79
2022/11/03 05:27:20;;;;;;;4.37;1.90;;;12.30;99.90;;;;;;5068128;28;20457;-78
2022/11/03 05:29:47;;;;;;;4.50;1.80;;;12.20;99.90;;;;;;5059493;28;20475;-79
2022/11/03 05:32:19;;;;;;;4.53;1.80;;;12.20;99.90;;;;;;5062025;28;20534;-80
2022/11/03 05:34:49;;;;;;;9.23;2.60;;;12.20;99.90;;;;;;5059768;28;20529;-78
2022/11/03 05:37:28;;;;;;;5.10;1.70;;;12.20;99.90;;;;;;5063029;28;20450;-78
2022/11/03 05:39:58;;;;;;;6.07;1.90;;;12.20;99.90;;;;;;5061033;28;20516;-77
2022/11/03 05:42:31;;;;;;;8.53;2.30;;;12.20;99.90;;;;;;5062700;28;20449;-80
2022/11/03 05:45:00;;;;;;;4.87;1.50;;;12.20;99.90;;;;;;5062316;28;20532;-79
2022/11/03 05:47:33;;;;;;;7.00;1.97;;;12.30;99.90;;;;;;5061935;28;20540;-79
2022/11/03 05:50:13;;;;;;;8.03;2.37;;;12.30;99.90;;;;;;5060100;28;20481;-79
2022/11/03 05:52:56;;;;;;;12.00;2.30;;;12.20;99.90;;;;;;5061925;28;20467;-79
2022/11/03 05:55:27;;;;;;;7.30;2.13;;;12.20;99.90;;;;;;5061592;28;20458;-78
2022/11/03 05:57:55;;;;;;;10.03;2.37;;;12.30;99.90;;;;;;5059671;28;20498;-78
2022/11/03 06:00:28;;;;;;;7.70;2.50;;;12.20;99.90;;;;;;5061270;28;20525;-78
2022/11/03 06:02:55;;;;;;;9.40;2.80;;;12.30;99.90;;;;;;5061269;28;20451;-78
2022/11/03 06:05:25;;;;;;;6.67;1.67;;;12.40;99.90;;;;;;5060608;28;20489;-79
2022/11/03 06:07:54;;;;;;;5.50;2.40;;;12.50;99.90;;;;;;5060713;28;20480;-80
2022/11/03 06:10:25;;;;;;;5.80;2.13;;;12.50;99.90;;;;;;5060109;28;20865;-80
2022/11/03 06:12:56;;;;;;;6.23;2.30;;;12.50;99.90;;;;;;5061170;28;20516;-80
2022/11/03 06:15:29;;;;;;;8.40;2.27;;;12.60;99.90;;;;;;5061406;28;20537;-79
2022/11/03 06:17:58;;;;;;;7.43;2.27;;;12.60;99.90;;;;;;5060623;28;20476;-79
2022/11/03 06:20:27;;;;;;;5.50;1.77;;;12.70;99.90;;;;;;5060401;28;20819;-80
2022/11/03 06:22:56;;;;;;;8.90;2.30;;;12.70;99.90;;;;;;5060886;28;20450;-78
2022/11/03 06:25:28;;;;;;;9.17;2.40;;;12.70;99.90;;;;;;5059811;28;20458;-79
2022/11/03 06:27:57;;;;;;;7.47;2.30;;;12.70;99.90;;;;;;5056554;28;21400;-78
2022/11/03 06:30:26;;;;;;;10.63;3.00;;;12.70;99.90;;;;;;5057930;28;20494;-79
2022/11/03 06:32:57;;;;;;;5.90;1.87;;;12.70;99.90;;;;;;5058150;28;20448;-79
2022/11/03 06:35:26;;;;;;;7.87;2.10;;;12.70;99.90;;;;;;5065553;28;20538;-79
2022/11/03 06:37:53;;;;;;;8.80;1.87;;;12.70;99.90;;;;;;5043918;28;20480;-78
2022/11/03 06:40:34;;;;;;;11.73;2.07;;;12.70;99.90;;;;;;5048059;28;20451;-78
2022/11/03 06:43:16;;;;;;;7.50;1.83;;;12.60;99.90;;;;;;5049745;28;20489;-80
2022/11/03 06:45:49;;;;;;;5.67;1.97;;;12.70;99.90;;;;;;5049539;28;20531;-78
2022/11/03 06:48:23;;;;;;;9.87;2.13;;;12.80;99.90;;;;;;5056923;28;20472;-77
2022/11/03 06:50:53;;;;;;;8.20;2.50;;;12.60;99.90;;;;;;5061688;28;20484;-80
2022/11/03 06:53:23;;;;;;;6.93;1.80;;;12.60;99.90;;;;;;5062328;28;20479;-78
2022/11/03 06:55:50;;;;;;;10.07;2.40;;;12.60;99.90;;;;;;5044233;28;20530;-82
2022/11/03 06:58:26;;;;;;;8.23;2.33;;;12.70;99.90;;;;;;5042235;28;20541;-80
2022/11/03 07:00:55;;;;;;;9.07;2.70;;;12.70;99.90;;;;;;5047517;28;20469;-79
2022/11/03 07:03:25;;;;;;;5.57;2.53;;;12.70;99.90;;;;;;5063563;28;20482;-79
2022/11/03 07:05:59;;;;;;;8.73;2.00;;;12.80;99.90;;;;;;5058845;28;20964;-80
2022/11/03 07:08:29;;;;;;;6.57;2.20;;;12.80;99.90;;;;;;5061217;28;20474;-79
2022/11/03 07:11:02;;;;;;;4.80;2.20;;;12.80;99.90;;;;;;5063721;28;20489;-79
2022/11/03 07:13:32;;;;;;;9.93;2.47;;;12.80;99.90;;;;;;5064833;28;20467;-80
2022/11/03 07:15:59;;;;;;;8.07;2.13;;;12.80;99.90;;;;;;5067587;28;20458;-80
2022/11/03 07:18:31;;;;;;;8.43;2.13;;;12.90;99.90;;;;;;5067617;28;20547;-81
2022/11/03 07:21:00;;;;;;;5.83;1.83;;;13.00;99.90;;;;;;5067645;28;20545;-80
2022/11/03 07:23:30;;;;;;;5.27;1.90;;;12.90;99.90;;;;;;5067660;28;20447;-80
2022/11/03 07:25:59;;;;;;;5.97;2.13;;;12.90;99.90;;;;;;5065971;28;20458;-79
2022/11/03 07:28:31;;;;;;;5.90;1.90;;;13.00;99.90;;;;;;5066840;28;20582;-79
2022/11/03 07:31:01;;;;;;;5.90;2.20;;;13.10;99.90;;;;;;5066339;28;20532;-81
2022/11/03 07:33:29;;;;;;;9.00;2.70;;;13.20;99.90;;;;;;5065322;28;20624;-80
2022/11/03 07:36:00;;;;;;;4.40;1.90;;;13.20;99.90;;;;;;5064558;28;20544;-80
2022/11/03 07:38:28;;;;;;;8.73;2.50;;;13.20;99.90;;;;;;5063066;28;20485;-79
2022/11/03 07:40:57;;;;;;;7.17;2.20;;;13.20;99.90;;;;;;5063912;28;20869;-78
2022/11/03 07:43:28;;;;;;;8.17;2.63;;;13.30;99.90;;;;;;5062411;28;20478;-79
2022/11/03 07:45:56;;;;;;;6.97;2.30;;;13.30;99.90;;;;;;5061067;28;20446;-79
2022/11/03 07:48:24;;;;;;;8.40;2.27;;;13.30;99.90;;;;;;5061407;28;20558;-79
2022/11/03 07:50:53;;;;;;;4.07;1.83;;;13.30;99.90;;;;;;5063207;28;20548;-80
2022/11/03 07:53:34;;;;;;;8.80;3.03;;;13.30;99.90;;;;;;5062605;28;20544;-79
2022/11/03 07:56:03;;;;;;;9.33;2.20;;;13.30;99.90;;;;;;5062579;28;20611;-79
2022/11/03 07:58:36;;;;;;;6.20;1.60;;;13.40;99.90;;;;;;5060344;28;21074;-78
2022/11/03 08:01:20;;;;;;;7.20;2.10;;;13.40;99.90;;;;;;5062427;28;20436;-80
2022/11/03 08:03:48;;;;;;;5.23;1.63;;;13.60;99.90;;;;;;5063211;28;20464;-79
2022/11/03 08:06:14;;;;;;;4.80;1.97;;;13.60;99.90;;;;;;5063425;28;20535;-79
2022/11/03 08:08:43;;;;;;;9.10;1.97;;;13.70;99.90;;;;;;5061672;28;20555;-78
2022/11/03 08:11:09;;;;;;;11.07;3.17;;;13.80;99.90;;;;;;5061925;28;20490;-80
2022/11/03 08:13:36;;;;;;;8.20;2.33;;;13.80;99.90;;;;;;5062648;28;20451;-80
2022/11/03 08:16:03;;;;;;;5.33;1.90;;;13.90;99.90;;;;;;5062495;28;20525;-79
2022/11/03 08:18:30;;;;;;;5.27;1.70;;;14.00;99.90;;;;;;5061694;28;20496;-78
2022/11/03 08:20:57;;;;;;;5.13;1.87;;;14.00;99.90;;;;;;5062813;28;20531;-79
2022/11/03 08:23:24;;;;;;;4.70;1.83;;;14.00;99.90;;;;;;5063267;28;20524;-81
2022/11/03 08:25:52;;;;;;;7.13;2.37;;;14.10;99.90;;;;;;5062900;28;20527;-78
2022/11/03 08:28:19;;;;;;;4.80;1.60;;;14.20;99.90;;;;;;5061205;28;20492;-79
2022/11/03 08:30:45;;;;;;;4.03;1.60;;;14.20;99.90;;;;;;5062937;28;20503;-80
2022/11/03 08:33:12;;;;;;;4.87;1.27;;;14.30;99.90;;;;;;5062254;28;21048;-80
2022/11/03 08:35:39;;;;;;;5.00;2.37;;;14.30;99.90;;;;;;5062366;28;20539;-79
2022/11/03 08:38:06;;;;;;;9.77;2.10;;;14.30;99.90;;;;;;5060493;28;20536;-78
2022/11/03 08:40:32;;;;;;;10.10;2.10;;;14.40;99.90;;;;;;5062622;28;20477;-80
2022/11/03 08:43:01;;;;;;;6.57;2.10;;;14.40;99.90;;;;;;5062451;28;20534;-81
2022/11/03 08:45:28;;;;;;;5.90;2.07;;;14.40;99.90;;;;;;5061506;28;20451;-80
2022/11/03 08:47:55;;;;;;;6.33;1.83;;;14.40;99.90;;;;;;5060736;28;20471;-78
2022/11/03 08:50:22;;;;;;;8.17;1.90;;;14.50;99.90;;;;;;5061716;28;20482;-79
2022/11/03 08:52:49;;;;;;;10.87;1.90;;;14.50;99.90;;;;;;5062193;28;20451;-78
2022/11/03 08:55:16;;;;;;;5.87;1.93;;;14.60;99.90;;;;;;5063232;28;20516;-80
2022/11/03 08:57:43;;;;;;;7.27;2.00;;;14.60;99.90;;;;;;5062808;28;20529;-80
2022/11/03 09:00:13;;;;;;;7.60;1.87;;;14.60;99.90;;;;;;5062453;28;20541;-80
2022/11/03 09:02:40;;;;;;;7.90;2.57;;;14.70;99.90;;;;;;5064144;28;20444;-80
2022/11/03 09:05:07;;;;;;;5.07;1.73;;;14.70;99.90;;;;;;5061839;28;20562;-79
2022/11/03 09:07:34;;;;;;;5.90;2.27;;;14.80;99.90;;;;;;5061768;28;20474;-79
2022/11/03 09:10:01;;;;;;;5.03;1.90;;;14.80;99.90;;;;;;5061565;28;21099;-80
2022/11/03 09:12:27;;;;;;;6.13;1.67;;;14.90;99.90;;;;;;5062443;28;20554;-81
2022/11/03 09:14:54;;;;;;;6.17;3.20;;;15.00;99.90;;;;;;5061603;28;20538;-79
2022/11/03 09:17:22;;;;;;;4.60;1.77;;;15.10;99.90;;;;;;5062772;28;20470;-79
2022/11/03 09:19:49;;;;;;;5.77;2.03;;;15.20;99.90;;;;;;5062446;28;20528;-81
2022/11/03 09:22:16;;;;;;;6.10;2.00;;;15.20;99.90;;;;;;5062429;28;21022;-80
2022/11/03 09:24:43;;;;;;;10.93;2.20;;;15.20;99.90;;;;;;5060481;28;20454;-78
2022/11/03 09:27:09;;;;;;;4.27;1.80;;;15.30;99.90;;;;;;5061151;28;20562;-78
2022/11/03 09:29:36;;;;;;;6.30;1.80;;;15.40;99.90;;;;;;5059728;28;20454;-79
2022/11/03 09:32:03;;;;;;;6.80;2.10;;;15.50;99.90;;;;;;5062299;28;20582;-80
2022/11/03 09:34:32;;;;;;;4.47;1.60;;;15.50;99.90;;;;;;5060398;28;20478;-79
2022/11/03 09:36:59;;;;;;;6.23;2.03;;;15.60;99.90;;;;;;5060824;28;20509;-81
2022/11/03 09:39:25;;;;;;;4.43;2.03;;;15.60;99.90;;;;;;5060037;28;20448;-79
2022/11/03 09:41:53;;;;;;;11.17;2.30;;;15.70;99.90;;;;;;5061644;28;20515;-80
2022/11/03 09:44:20;;;;;;;5.23;1.77;;;15.70;99.90;;;;;;5060784;28;20459;-79
2022/11/03 09:46:47;;;;;;;4.20;1.50;;;15.70;99.90;;;;;;5060961;28;20458;-80
2022/11/03 09:49:15;;;;;;;7.43;1.77;;;15.80;99.90;;;;;;5060223;28;20483;-80
2022/11/03 09:51:44;;;;;;;5.47;1.63;;;15.80;99.90;;;;;;5060049;28;20512;-78
2022/11/03 09:54:14;;;;;;;5.67;1.77;;;15.70;99.90;;;;;;5060601;28;20594;-79
2022/11/03 09:56:42;;;;;;;11.40;1.90;;;15.80;99.90;;;;;;5061242;28;20449;-79
2022/11/03 09:59:15;;;;;;;7.37;1.53;;;15.80;99.90;;;;;;5061240;28;20891;-79
2022/11/03 10:01:44;;;;;;;5.23;1.77;;;15.80;99.90;;;;;;5061346;28;20500;-78
2022/11/03 10:04:12;;;;;;;5.90;1.70;;;15.90;99.90;;;;;;5061100;28;20458;-78
2022/11/03 10:06:39;;;;;;;5.17;1.60;;;15.90;99.90;;;;;;5062088;28;20879;-79
2022/11/03 10:09:12;;;;;;;4.90;1.60;;;16.00;99.90;;;;;;5063839;28;20558;-79
2022/11/03 10:11:39;;;;;;;5.83;2.00;;;16.10;99.90;;;;;;5064494;28;20582;-80
2022/11/03 10:14:11;;;;;;;8.60;1.70;;;16.10;99.90;;;;;;5065606;28;20532;-78
2022/11/03 10:16:39;;;;;;;7.87;2.33;;;16.00;99.90;;;;;;5064739;28;20456;-79
2022/11/03 10:19:09;;;;;;;9.33;2.13;;;16.10;99.90;;;;;;5064488;28;20547;-79
2022/11/03 10:21:36;;;;;;;4.47;1.97;;;16.20;99.90;;;;;;5064764;28;20486;-79
2022/11/03 10:24:04;;;;;;;8.17;1.57;;;16.30;99.90;;;;;;5064286;28;20483;-79
2022/11/03 10:26:44;;;;;;;6.00;1.60;;;16.20;99.90;;;;;;5062646;28;20553;-80
2022/11/03 10:29:19;;;;;;;3.63;1.23;;;16.20;99.90;;;;;;5063459;28;20490;-79
2022/11/03 10:31:48;;;;;;;5.50;1.77;;;16.20;99.90;;;;;;5064381;28;20490;-79
2022/11/03 10:34:27;;;;;;;5.73;1.23;;;16.10;99.90;;;;;;5063602;28;20465;-80
2022/11/03 10:37:12;;;;;;;5.93;1.67;;;16.10;99.90;;;;;;5062948;28;20486;-79
2022/11/03 10:39:38;;;;;;;6.40;1.80;;;16.10;99.90;;;;;;5061526;28;20448;-80
2022/11/03 10:42:20;;;;;;;9.57;2.00;;;16.10;99.90;;;;;;5063398;28;21059;-78
2022/11/03 10:44:48;;;;;;;5.80;1.80;;;16.00;99.90;;;;;;5064144;28;20559;-82
2022/11/03 10:47:31;;;;;;;2.90;1.33;;;15.90;99.90;;;;;;5064077;28;20530;-80
2022/11/03 10:49:58;;;;;;;5.23;1.50;;;16.00;99.90;;;;;;5062075;28;20443;-80
2022/11/03 10:52:28;;;;;;;7.13;2.30;;;15.90;99.90;;;;;;5063741;28;20541;-80
2022/11/03 10:54:58;;;;;;;4.90;2.00;;;16.00;99.90;;;;;;5068036;28;20478;-78
2022/11/03 10:57:27;;;;;;;5.50;1.80;;;16.10;99.90;;;;;;5070958;28;20535;-79
2022/11/03 10:59:54;;;;;;;5.40;1.60;;;16.10;99.90;;;;;;5068599;28;20472;-79
2022/11/03 11:02:24;;;;;;;4.00;1.90;;;16.10;99.90;;;;;;5069601;28;20494;-80
2022/11/03 11:04:57;;;;;;;9.00;2.17;;;16.20;99.90;;;;;;5065515;28;20530;-80
2022/11/03 11:07:30;;;;;;;7.50;1.50;;;16.20;99.90;;;;;;5065111;28;20478;-81
2022/11/03 11:10:04;;;;;;;3.80;2.30;;;16.10;99.90;;;;;;5065219;28;20552;-81
2022/11/03 11:12:32;;;;;;;6.00;2.10;;;16.10;99.90;;;;;;5065963;28;20880;-79
2022/11/03 11:15:00;;;;;;;5.57;1.60;;;16.20;99.90;;;;;;5063448;28;21035;-81
2022/11/03 11:17:48;;;;;;;6.07;1.47;;;16.20;99.90;;;;;;5066342;28;20934;-82
2022/11/03 11:20:35;;;;;;;8.07;1.50;;;16.30;99.90;;;;;;5066327;28;20584;-82
2022/11/03 11:23:48;;;;;;;3.70;1.10;;;16.40;99.90;;;;;;5066077;28;20467;-81
2022/11/03 11:26:31;;;;;;;8.10;2.27;;;16.60;99.90;;;;;;5064430;28;20448;-80
2022/11/03 11:29:41;;;;;;;8.30;1.70;;;16.90;99.90;;;;;;5060453;28;20563;-79
2022/11/03 11:32:48;;;;;;;4.00;1.57;;;17.40;99.90;;;;;;5043789;28;20469;-79
2022/11/03 11:36:03;;;;;;;7.80;2.10;;;18.70;99.90;;;;;;5055215;28;20456;-81
2022/11/03 11:39:04;;;;;;;4.23;1.50;;;20.80;99.90;;;;;;5063705;28;20476;-78
2022/11/03 11:42:04;;;;;;;6.37;1.80;;;21.60;99.90;;;;;;5004186;28;20481;-80
2022/11/03 11:44:53;;;;;;;4.13;1.57;;;22.50;99.90;;;;;;5064998;28;20441;-79
2022/11/03 11:47:50;;;;;;;6.37;1.70;;;23.20;99.90;;;;;;5065377;28;21841;-80
2022/11/03 11:50:30;;;;;;;5.17;1.40;;;23.50;99.90;;;;;;5059528;28;21007;-79
2022/11/03 11:53:00;;;;;;;5.97;1.83;;;23.80;99.90;;;;;;5065517;28;20452;-82
2022/11/03 11:55:38;;;;;;;4.50;1.70;;;24.40;99.90;;;;;;5066125;28;20480;-80
2022/11/03 11:58:14;;;;;;;5.20;1.63;;;24.70;99.90;;;;;;5063579;28;20480;-82
2022/11/03 12:00:54;;;;;;;3.17;1.33;;;24.50;99.90;;;;;;5067332;28;20486;-81
2022/11/03 12:03:32;;;;;;;6.10;1.87;;;25.10;99.90;;;;;;5066079;28;20930;-80
2022/11/03 12:06:00;;;;;;;4.77;1.83;;;25.30;99.90;;;;;;5065441;28;20467;-82
2022/11/03 12:08:29;;;;;;;4.97;1.80;;;25.10;99.90;;;;;;5065146;28;20483;-82
2022/11/03 12:10:58;;;;;;;6.53;1.90;;;24.90;99.60;;;;;;5065339;28;20547;-80
2022/11/03 12:13:56;;;;;;;4.23;1.50;;;24.20;99.90;;;;;;5063922;28;20515;-81
2022/11/03 12:16:30;;;;;;;4.80;1.90;;;23.40;99.10;;;;;;5044255;28;20801;-81
2022/11/03 12:18:57;;;;;;;6.33;1.50;;;22.50;99.90;;;;;;5041519;28;20470;-82
2022/11/03 12:21:47;;;;;;;7.53;1.73;;;21.90;99.90;;;;;;5041291;28;20457;-80
2022/11/03 12:24:37;;;;;;;5.00;1.57;;;20.90;99.90;;;;;;5050057;28;20551;-80
2022/11/03 12:27:39;;;;;;;5.60;1.50;;;20.40;99.90;;;;;;5062370;28;20555;-80
2022/11/03 12:30:12;;;;;;;4.23;1.30;;;19.70;99.90;;;;;;5062063;28;20458;-78
2022/11/03 12:32:38;;;;;;;6.00;1.40;;;19.10;99.90;;;;;;5062127;28;20464;-81
2022/11/03 12:35:07;;;;;;;6.97;2.10;;;18.80;99.90;;;;;;5063607;28;20883;-79
2022/11/03 12:37:36;;;;;;;2.80;1.13;;;18.60;99.90;;;;;;5062432;28;20473;-82
2022/11/03 12:40:04;;;;;;;5.63;1.50;;;18.30;99.90;;;;;;5061313;28;20450;-81
2022/11/03 12:42:31;;;;;;;3.90;1.37;;;18.00;99.90;;;;;;5062230;28;20532;-81
2022/11/03 12:44:57;;;;;;;3.90;1.30;;;18.00;99.90;;;;;;5063397;28;20550;-80
2022/11/03 12:47:24;;;;;;;6.40;1.40;;;18.00;99.90;;;;;;5063143;28;20498;-81
2022/11/03 12:49:51;;;;;;;3.37;1.27;;;17.90;99.90;;;;;;5062392;28;20441;-81
2022/11/03 12:52:18;;;;;;;4.60;1.50;;;18.10;99.90;;;;;;5063619;28;20949;-79
2022/11/03 12:54:46;;;;;;;4.67;1.83;;;18.70;99.90;;;;;;5062712;28;20533;-79
2022/11/03 12:57:13;;;;;;;7.40;1.53;;;19.30;99.90;;;;;;5062344;28;20457;-80
2022/11/03 12:59:40;;;;;;;3.60;1.30;;;19.70;99.90;;;;;;5061643;28;20984;-81
2022/11/03 13:02:08;;;;;;;7.73;1.33;;;19.70;99.90;;;;;;5062085;28;20527;-81
2022/11/03 13:04:35;;;;;;;6.00;1.50;;;19.50;99.90;;;;;;5063872;28;20539;-81
2022/11/03 13:07:02;;;;;;;6.07;1.40;;;19.20;99.90;;;;;;5063909;28;20526;-79
2022/11/03 13:09:29;;;;;;;4.13;1.50;;;19.10;99.90;;;;;;5063335;28;20482;-81
2022/11/03 13:14:41;;;;;;;3.27;1.30;;;18.40;99.90;;;;;;5063631;28;20465;-79
2022/11/03 13:17:07;;;;;;;3.73;1.33;;;18.20;99.90;;;;;;5062931;28;20544;-80
2022/11/03 13:19:36;;;;;;;3.40;1.10;;;17.90;99.90;;;;;;5062172;28;20452;-81
2022/11/03 13:22:02;;;;;;;3.93;1.50;;;17.90;99.90;;;;;;5063152;28;20473;-79
2022/11/03 13:24:29;;;;;;;6.13;1.50;;;17.80;99.90;;;;;;5062994;28;20532;-78